sensor_id;sensor_type;location;lat;lon;timestamp;pressure;altitude;pressure_sealevel;temperature;humidity
58975;BME280;44751;52.236;5.178;2023-03-16T00:00:04;101605.13;;;5.65;100.00
58975;BME280;44751;52.236;5.178;2023-03-16T00:02:34;101604.75;;;5.69;100.00
58975;BME280;44751;52.236;5.178;2023-03-16T00:05:02;101595.34;;;5.75;100.00
58975;BME280;44751;52.236;5.178;2023-03-16T00:07:29;101602.16;;;5.79;100.00
58975;BME280;44751;52.236;5.178;2023-03-16T00:09:55;101593.25;;;5.79;100.00
58975;BME280;44751;52.236;5.178;2023-03-16T00:12:22;101591.19;;;5.82;100.00
58975;BME280;44751;52.236;5.178;2023-03-16T00:14:51;101587.28;;;5.87;100.00
58975;BME280;44751;52.236;5.178;2023-03-16T00:17:21;101583.66;;;5.76;100.00
58975;BME280;44751;52.236;5.178;2023-03-16T00:19:51;101586.81;;;5.81;100.00
58975;BME280;44751;52.236;5.178;2023-03-16T00:22:21;101575.97;;;5.83;100.00
58975;BME280;44751;52.236;5.178;2023-03-16T00:24:47;101574.66;;;5.77;100.00
58975;BME280;44751;52.236;5.178;2023-03-16T00:27:15;101558.97;;;5.73;100.00
58975;BME280;44751;52.236;5.178;2023-03-16T00:29:46;101561.41;;;5.76;100.00
58975;BME280;44751;52.236;5.178;2023-03-16T00:32:18;101562.78;;;5.70;100.00
58975;BME280;44751;52.236;5.178;2023-03-16T00:34:46;101556.44;;;5.71;100.00
58975;BME280;44751;52.236;5.178;2023-03-16T00:37:16;101558.13;;;5.72;100.00
58975;BME280;44751;52.236;5.178;2023-03-16T00:39:45;101556.44;;;5.71;100.00
58975;BME280;44751;52.236;5.178;2023-03-16T00:42:14;101563.81;;;5.79;100.00
58975;BME280;44751;52.236;5.178;2023-03-16T00:44:40;101558.94;;;5.84;100.00
58975;BME280;44751;52.236;5.178;2023-03-16T00:47:07;101561.28;;;5.77;100.00
58975;BME280;44751;52.236;5.178;2023-03-16T00:49:37;101562.72;;;5.81;100.00
58975;BME280;44751;52.236;5.178;2023-03-16T00:52:06;101555.19;;;5.75;100.00
58975;BME280;44751;52.236;5.178;2023-03-16T00:54:32;101544.94;;;5.80;100.00
58975;BME280;44751;52.236;5.178;2023-03-16T00:56:59;101538.22;;;5.86;100.00
58975;BME280;44751;52.236;5.178;2023-03-16T00:59:27;101541.75;;;5.87;100.00
58975;BME280;44751;52.236;5.178;2023-03-16T01:01:57;101531.84;;;5.77;100.00
58975;BME280;44751;52.236;5.178;2023-03-16T01:04:24;101526.78;;;5.84;100.00
58975;BME280;44751;52.236;5.178;2023-03-16T01:06:50;101527.19;;;5.79;100.00
58975;BME280;44751;52.236;5.178;2023-03-16T01:09:17;101523.06;;;5.75;100.00
58975;BME280;44751;52.236;5.178;2023-03-16T01:11:44;101530.53;;;5.72;100.00
58975;BME280;44751;52.236;5.178;2023-03-16T01:14:13;101520.50;;;5.74;100.00
58975;BME280;44751;52.236;5.178;2023-03-16T01:16:39;101527.38;;;5.88;100.00
58975;BME280;44751;52.236;5.178;2023-03-16T01:19:11;101505.75;;;5.79;100.00
58975;BME280;44751;52.236;5.178;2023-03-16T01:21:41;101516.22;;;5.82;100.00
58975;BME280;44751;52.236;5.178;2023-03-16T01:24:11;101514.53;;;5.81;100.00
58975;BME280;44751;52.236;5.178;2023-03-16T01:26:38;101502.50;;;5.76;100.00
58975;BME280;44751;52.236;5.178;2023-03-16T01:29:04;101495.03;;;5.79;100.00
58975;BME280;44751;52.236;5.178;2023-03-16T01:31:31;101492.50;;;5.78;100.00
58975;BME280;44751;52.236;5.178;2023-03-16T01:33:58;101489.56;;;5.81;100.00
58975;BME280;44751;52.236;5.178;2023-03-16T01:36:27;101497.03;;;5.77;100.00
58975;BME280;44751;52.236;5.178;2023-03-16T01:38:54;101480.94;;;5.77;100.00
58975;BME280;44751;52.236;5.178;2023-03-16T01:41:20;101484.00;;;5.73;100.00
58975;BME280;44751;52.236;5.178;2023-03-16T01:43:47;101477.66;;;5.74;100.00
58975;BME280;44751;52.236;5.178;2023-03-16T01:46:24;101473.09;;;5.86;100.00
58975;BME280;44751;52.236;5.178;2023-03-16T01:54:25;101454.75;;;5.81;100.00
58975;BME280;44751;52.236;5.178;2023-03-16T01:56:59;101454.38;;;5.86;100.00
58975;BME280;44751;52.236;5.178;2023-03-16T02:02:10;101451.94;;;5.82;100.00
58975;BME280;44751;52.236;5.178;2023-03-16T02:07:16;101445.72;;;5.82;100.00
58975;BME280;44751;52.236;5.178;2023-03-16T02:09:45;101444.72;;;5.73;100.00
58975;BME280;44751;52.236;5.178;2023-03-16T02:12:17;101445.97;;;5.79;100.00
58975;BME280;44751;52.236;5.178;2023-03-16T02:14:45;101438.69;;;5.81;100.00
58975;BME280;44751;52.236;5.178;2023-03-16T02:17:18;101436.00;;;5.81;100.00
58975;BME280;44751;52.236;5.178;2023-03-16T02:22:18;101427.41;;;5.77;100.00
58975;BME280;44751;52.236;5.178;2023-03-16T02:24:49;101422.63;;;5.81;100.00
58975;BME280;44751;52.236;5.178;2023-03-16T02:27:24;101420.06;;;5.79;100.00
58975;BME280;44751;52.236;5.178;2023-03-16T02:30:07;101423.19;;;5.85;100.00
58975;BME280;44751;52.236;5.178;2023-03-16T02:32:38;101415.97;;;5.75;100.00
58975;BME280;44751;52.236;5.178;2023-03-16T02:35:07;101427.16;;;5.90;100.00
58975;BME280;44751;52.236;5.178;2023-03-16T02:37:34;101430.88;;;5.99;100.00
58975;BME280;44751;52.236;5.178;2023-03-16T02:40:12;101421.00;;;6.00;100.00
58975;BME280;44751;52.236;5.178;2023-03-16T02:42:41;101421.66;;;5.92;100.00
58975;BME280;44751;52.236;5.178;2023-03-16T02:45:09;101422.22;;;5.86;100.00
58975;BME280;44751;52.236;5.178;2023-03-16T02:47:40;101427.47;;;5.97;100.00
58975;BME280;44751;52.236;5.178;2023-03-16T02:50:09;101431.00;;;5.98;100.00
58975;BME280;44751;52.236;5.178;2023-03-16T02:52:37;101413.38;;;5.95;100.00
58975;BME280;44751;52.236;5.178;2023-03-16T02:55:07;101427.34;;;5.99;100.00
58975;BME280;44751;52.236;5.178;2023-03-16T02:57:34;101416.75;;;5.97;100.00
58975;BME280;44751;52.236;5.178;2023-03-16T03:00:01;101417.22;;;6.02;100.00
58975;BME280;44751;52.236;5.178;2023-03-16T03:02:29;101405.34;;;5.95;100.00
58975;BME280;44751;52.236;5.178;2023-03-16T03:04:59;101414.22;;;5.96;100.00
58975;BME280;44751;52.236;5.178;2023-03-16T03:07:26;101417.34;;;6.01;100.00
58975;BME280;44751;52.236;5.178;2023-03-16T03:09:56;101413.94;;;5.99;100.00
58975;BME280;44751;52.236;5.178;2023-03-16T03:12:22;101414.50;;;5.92;100.00
58975;BME280;44751;52.236;5.178;2023-03-16T03:14:49;101410.81;;;5.93;100.00
58975;BME280;44751;52.236;5.178;2023-03-16T03:17:16;101414.75;;;5.89;100.00
58975;BME280;44751;52.236;5.178;2023-03-16T03:19:42;101408.91;;;5.74;100.00
58975;BME280;44751;52.236;5.178;2023-03-16T03:22:09;101412.34;;;5.86;100.00
58975;BME280;44751;52.236;5.178;2023-03-16T03:24:35;101406.03;;;5.87;100.00
58975;BME280;44751;52.236;5.178;2023-03-16T03:27:02;101404.00;;;5.79;100.00
58975;BME280;44751;52.236;5.178;2023-03-16T03:29:32;101404.69;;;5.72;100.00
58975;BME280;44751;52.236;5.178;2023-03-16T03:32:00;101394.44;;;5.87;100.00
58975;BME280;44751;52.236;5.178;2023-03-16T03:34:28;101390.47;;;5.81;100.00
58975;BME280;44751;52.236;5.178;2023-03-16T03:36:54;101384.28;;;5.80;100.00
58975;BME280;44751;52.236;5.178;2023-03-16T03:39:21;101390.34;;;5.82;100.00
58975;BME280;44751;52.236;5.178;2023-03-16T03:41:47;101382.00;;;5.76;100.00
58975;BME280;44751;52.236;5.178;2023-03-16T03:44:14;101378.03;;;5.70;100.00
58975;BME280;44751;52.236;5.178;2023-03-16T03:46:40;101389.31;;;5.74;100.00
58975;BME280;44751;52.236;5.178;2023-03-16T03:49:06;101387.94;;;5.79;100.00
58975;BME280;44751;52.236;5.178;2023-03-16T03:51:33;101377.63;;;5.75;100.00
58975;BME280;44751;52.236;5.178;2023-03-16T03:53:59;101368.75;;;5.74;100.00
58975;BME280;44751;52.236;5.178;2023-03-16T03:56:26;101368.84;;;5.63;100.00
58975;BME280;44751;52.236;5.178;2023-03-16T03:58:52;101363.19;;;5.56;100.00
58975;BME280;44751;52.236;5.178;2023-03-16T04:01:19;101359.06;;;5.52;100.00
58975;BME280;44751;52.236;5.178;2023-03-16T04:03:48;101374.88;;;5.55;100.00
58975;BME280;44751;52.236;5.178;2023-03-16T04:06:15;101365.25;;;5.52;100.00
58975;BME280;44751;52.236;5.178;2023-03-16T04:08:41;101352.34;;;5.58;100.00
58975;BME280;44751;52.236;5.178;2023-03-16T04:11:08;101355.28;;;5.54;100.00
58975;BME280;44751;52.236;5.178;2023-03-16T04:13:39;101355.34;;;5.43;100.00
58975;BME280;44751;52.236;5.178;2023-03-16T04:16:05;101357.97;;;5.54;100.00
58975;BME280;44751;52.236;5.178;2023-03-16T04:18:32;101337.50;;;5.43;100.00
58975;BME280;44751;52.236;5.178;2023-03-16T04:21:05;101334.81;;;5.43;100.00
58975;BME280;44751;52.236;5.178;2023-03-16T04:23:36;101341.16;;;5.52;100.00
58975;BME280;44751;52.236;5.178;2023-03-16T04:26:03;101340.66;;;5.59;100.00
58975;BME280;44751;52.236;5.178;2023-03-16T04:28:31;101338.66;;;5.51;100.00
58975;BME280;44751;52.236;5.178;2023-03-16T04:31:02;101333.13;;;5.52;100.00
58975;BME280;44751;52.236;5.178;2023-03-16T04:33:31;101338.38;;;5.54;100.00
58975;BME280;44751;52.236;5.178;2023-03-16T04:35:58;101343.59;;;5.55;100.00
58975;BME280;44751;52.236;5.178;2023-03-16T04:38:27;101326.97;;;5.52;100.00
58975;BME280;44751;52.236;5.178;2023-03-16T04:40:54;101340.53;;;5.60;100.00
58975;BME280;44751;52.236;5.178;2023-03-16T04:43:20;101345.44;;;5.55;100.00
58975;BME280;44751;52.236;5.178;2023-03-16T04:45:51;101325.56;;;5.58;100.00
58975;BME280;44751;52.236;5.178;2023-03-16T04:48:17;101330.47;;;5.52;100.00
58975;BME280;44751;52.236;5.178;2023-03-16T04:50:44;101332.63;;;5.59;100.00
58975;BME280;44751;52.236;5.178;2023-03-16T04:53:11;101328.53;;;5.54;100.00
58975;BME280;44751;52.236;5.178;2023-03-16T04:55:37;101331.50;;;5.61;100.00
58975;BME280;44751;52.236;5.178;2023-03-16T04:58:06;101324.31;;;5.62;100.00
58975;BME280;44751;52.236;5.178;2023-03-16T05:00:33;101329.72;;;5.72;100.00
58975;BME280;44751;52.236;5.178;2023-03-16T05:02:59;101329.38;;;5.55;100.00
58975;BME280;44751;52.236;5.178;2023-03-16T05:05:26;101330.94;;;5.58;100.00
58975;BME280;44751;52.236;5.178;2023-03-16T05:07:54;101330.63;;;5.61;100.00
58975;BME280;44751;52.236;5.178;2023-03-16T05:10:23;101326.72;;;5.65;100.00
58975;BME280;44751;52.236;5.178;2023-03-16T05:12:49;101321.81;;;5.70;100.00
58975;BME280;44751;52.236;5.178;2023-03-16T05:15:16;101326.44;;;5.68;100.00
58975;BME280;44751;52.236;5.178;2023-03-16T05:17:42;101335.28;;;5.59;100.00
58975;BME280;44751;52.236;5.178;2023-03-16T05:20:12;101333.19;;;5.62;100.00
58975;BME280;44751;52.236;5.178;2023-03-16T05:22:42;101329.84;;;5.70;100.00
58975;BME280;44751;52.236;5.178;2023-03-16T05:25:09;101332.41;;;5.72;100.00
58975;BME280;44751;52.236;5.178;2023-03-16T05:27:40;101334.75;;;5.65;100.00
58975;BME280;44751;52.236;5.178;2023-03-16T05:30:09;101332.22;;;5.63;100.00
58975;BME280;44751;52.236;5.178;2023-03-16T05:32:38;101330.13;;;5.67;100.00
58975;BME280;44751;52.236;5.178;2023-03-16T05:35:05;101324.19;;;5.63;100.00
58975;BME280;44751;52.236;5.178;2023-03-16T05:37:33;101317.97;;;5.63;100.00
58975;BME280;44751;52.236;5.178;2023-03-16T05:40:03;101303.88;;;5.61;100.00
58975;BME280;44751;52.236;5.178;2023-03-16T05:42:37;101303.19;;;5.59;100.00
58975;BME280;44751;52.236;5.178;2023-03-16T05:45:03;101297.25;;;5.55;100.00
58975;BME280;44751;52.236;5.178;2023-03-16T05:47:30;101305.84;;;5.59;100.00
58975;BME280;44751;52.236;5.178;2023-03-16T05:49:57;101290.66;;;5.59;100.00
58975;BME280;44751;52.236;5.178;2023-03-16T05:52:23;101288.75;;;5.50;100.00
58975;BME280;44751;52.236;5.178;2023-03-16T05:54:50;101291.03;;;5.54;100.00
58975;BME280;44751;52.236;5.178;2023-03-16T05:57:16;101278.19;;;5.48;100.00
58975;BME280;44751;52.236;5.178;2023-03-16T05:59:43;101286.50;;;5.45;100.00
58975;BME280;44751;52.236;5.178;2023-03-16T06:02:10;101294.25;;;5.48;100.00
58975;BME280;44751;52.236;5.178;2023-03-16T06:04:36;101292.81;;;5.44;100.00
58975;BME280;44751;52.236;5.178;2023-03-16T06:07:03;101292.59;;;5.57;100.00
58975;BME280;44751;52.236;5.178;2023-03-16T06:09:32;101292.56;;;5.47;100.00
58975;BME280;44751;52.236;5.178;2023-03-16T06:11:59;101289.03;;;5.47;100.00
58975;BME280;44751;52.236;5.178;2023-03-16T06:14:25;101284.97;;;5.52;100.00
58975;BME280;44751;52.236;5.178;2023-03-16T06:16:52;101279.88;;;5.39;100.00
58975;BME280;44751;52.236;5.178;2023-03-16T06:19:18;101283.09;;;5.43;100.00
58975;BME280;44751;52.236;5.178;2023-03-16T06:21:45;101282.84;;;5.46;100.00
58975;BME280;44751;52.236;5.178;2023-03-16T06:24:15;101278.47;;;5.45;100.00
58975;BME280;44751;52.236;5.178;2023-03-16T06:26:41;101279.63;;;5.52;100.00
58975;BME280;44751;52.236;5.178;2023-03-16T06:29:07;101281.91;;;5.57;100.00
58975;BME280;44751;52.236;5.178;2023-03-16T06:31:34;101285.00;;;5.62;100.00
58975;BME280;44751;52.236;5.178;2023-03-16T06:34:00;101273.72;;;5.59;100.00
58975;BME280;44751;52.236;5.178;2023-03-16T06:36:27;101267.13;;;5.63;100.00
58975;BME280;44751;52.236;5.178;2023-03-16T06:38:53;101269.94;;;5.61;100.00
58975;BME280;44751;52.236;5.178;2023-03-16T06:41:20;101267.13;;;5.63;100.00
58975;BME280;44751;52.236;5.178;2023-03-16T06:43:46;101270.66;;;5.63;100.00
58975;BME280;44751;52.236;5.178;2023-03-16T06:46:13;101265.75;;;5.78;100.00
58975;BME280;44751;52.236;5.178;2023-03-16T06:48:39;101263.09;;;5.78;100.00
58975;BME280;44751;52.236;5.178;2023-03-16T06:51:10;101262.81;;;5.81;100.00
58975;BME280;44751;52.236;5.178;2023-03-16T06:53:36;101269.88;;;5.92;100.00
58975;BME280;44751;52.236;5.178;2023-03-16T06:56:03;101263.66;;;5.92;100.00
58975;BME280;44751;52.236;5.178;2023-03-16T06:58:29;101259.59;;;5.98;100.00
58975;BME280;44751;52.236;5.178;2023-03-16T07:01:00;101253.09;;;5.90;100.00
58975;BME280;44751;52.236;5.178;2023-03-16T07:03:27;101252.13;;;5.91;100.00
58975;BME280;44751;52.236;5.178;2023-03-16T07:05:53;101243.78;;;5.85;100.00
58975;BME280;44751;52.236;5.178;2023-03-16T07:08:20;101247.03;;;5.88;100.00
58975;BME280;44751;52.236;5.178;2023-03-16T07:10:46;101247.31;;;5.95;100.00
58975;BME280;44751;52.236;5.178;2023-03-16T07:13:13;101249.00;;;5.86;100.00
58975;BME280;44751;52.236;5.178;2023-03-16T07:15:39;101252.94;;;5.92;100.00
58975;BME280;44751;52.236;5.178;2023-03-16T07:18:08;101244.91;;;5.92;100.00
58975;BME280;44751;52.236;5.178;2023-03-16T07:20:36;101262.13;;;5.99;100.00
58975;BME280;44751;52.236;5.178;2023-03-16T07:23:03;101245.63;;;5.94;100.00
58975;BME280;44751;52.236;5.178;2023-03-16T07:25:29;101241.97;;;5.95;100.00
58975;BME280;44751;52.236;5.178;2023-03-16T07:27:56;101241.88;;;6.06;100.00
58975;BME280;44751;52.236;5.178;2023-03-16T07:30:23;101240.03;;;6.07;100.00
58975;BME280;44751;52.236;5.178;2023-03-16T07:32:53;101236.25;;;6.10;100.00
58975;BME280;44751;52.236;5.178;2023-03-16T07:35:20;101241.97;;;5.95;100.00
58975;BME280;44751;52.236;5.178;2023-03-16T07:37:47;101238.28;;;5.96;100.00
58975;BME280;44751;52.236;5.178;2023-03-16T07:40:14;101251.69;;;5.96;100.00
58975;BME280;44751;52.236;5.178;2023-03-16T07:42:40;101248.22;;;6.05;100.00
58975;BME280;44751;52.236;5.178;2023-03-16T07:45:07;101239.47;;;6.03;100.00
58975;BME280;44751;52.236;5.178;2023-03-16T07:47:34;101244.69;;;6.05;100.00
58975;BME280;44751;52.236;5.178;2023-03-16T07:50:00;101252.97;;;6.02;100.00
58975;BME280;44751;52.236;5.178;2023-03-16T07:52:27;101257.09;;;6.16;100.00
58975;BME280;44751;52.236;5.178;2023-03-16T07:54:54;101251.19;;;6.12;100.00
58975;BME280;44751;52.236;5.178;2023-03-16T07:57:20;101262.88;;;6.21;100.00
58975;BME280;44751;52.236;5.178;2023-03-16T07:59:47;101252.59;;;6.36;100.00
58975;BME280;44751;52.236;5.178;2023-03-16T08:02:16;101248.06;;;6.46;100.00
58975;BME280;44751;52.236;5.178;2023-03-16T08:04:43;101247.03;;;6.77;100.00
58975;BME280;44751;52.236;5.178;2023-03-16T08:07:11;101243.78;;;6.83;100.00
58975;BME280;44751;52.236;5.178;2023-03-16T08:09:41;101234.06;;;6.82;100.00
58975;BME280;44751;52.236;5.178;2023-03-16T08:12:08;101227.56;;;6.75;100.00
58975;BME280;44751;52.236;5.178;2023-03-16T08:14:35;101233.63;;;6.77;100.00
58975;BME280;44751;52.236;5.178;2023-03-16T08:17:03;101224.53;;;6.98;100.00
58975;BME280;44751;52.236;5.178;2023-03-16T08:19:30;101230.31;;;7.03;100.00
58975;BME280;44751;52.236;5.178;2023-03-16T08:21:59;101231.19;;;6.94;100.00
58975;BME280;44751;52.236;5.178;2023-03-16T08:24:27;101223.59;;;6.89;100.00
58975;BME280;44751;52.236;5.178;2023-03-16T08:26:55;101233.47;;;6.89;100.00
58975;BME280;44751;52.236;5.178;2023-03-16T08:29:22;101218.94;;;6.81;100.00
58975;BME280;44751;52.236;5.178;2023-03-16T08:31:49;101245.03;;;6.99;100.00
58975;BME280;44751;52.236;5.178;2023-03-16T08:34:17;101236.81;;;7.01;100.00
58975;BME280;44751;52.236;5.178;2023-03-16T08:36:44;101237.66;;;7.01;100.00
58975;BME280;44751;52.236;5.178;2023-03-16T08:39:10;101243.56;;;7.15;100.00
58975;BME280;44751;52.236;5.178;2023-03-16T08:41:36;101242.38;;;7.27;100.00
58975;BME280;44751;52.236;5.178;2023-03-16T08:44:04;101244.22;;;7.27;100.00
58975;BME280;44751;52.236;5.178;2023-03-16T08:46:31;101238.31;;;7.23;100.00
58975;BME280;44751;52.236;5.178;2023-03-16T08:49:01;101231.53;;;7.19;100.00
58975;BME280;44751;52.236;5.178;2023-03-16T08:51:28;101232.47;;;7.28;100.00
58975;BME280;44751;52.236;5.178;2023-03-16T08:53:55;101246.75;;;7.28;100.00
58975;BME280;44751;52.236;5.178;2023-03-16T08:56:22;101218.38;;;7.26;100.00
58975;BME280;44751;52.236;5.178;2023-03-16T08:58:49;101226.66;;;7.32;100.00
58975;BME280;44751;52.236;5.178;2023-03-16T09:01:19;101228.09;;;7.55;100.00
58975;BME280;44751;52.236;5.178;2023-03-16T09:03:49;101224.41;;;7.56;100.00
58975;BME280;44751;52.236;5.178;2023-03-16T09:06:17;101227.66;;;7.59;100.00
58975;BME280;44751;52.236;5.178;2023-03-16T09:08:44;101221.53;;;7.67;100.00
58975;BME280;44751;52.236;5.178;2023-03-16T09:11:14;101228.19;;;7.63;100.00
58975;BME280;44751;52.236;5.178;2023-03-16T09:13:41;101223.53;;;7.65;100.00
58975;BME280;44751;52.236;5.178;2023-03-16T09:16:10;101225.19;;;7.94;100.00
58975;BME280;44751;52.236;5.178;2023-03-16T09:18:38;101231.09;;;7.98;100.00
58975;BME280;44751;52.236;5.178;2023-03-16T09:21:06;101228.41;;;7.98;100.00
58975;BME280;44751;52.236;5.178;2023-03-16T09:23:37;101227.72;;;7.96;100.00
58975;BME280;44751;52.236;5.178;2023-03-16T09:26:06;101222.78;;;7.91;100.00
58975;BME280;44751;52.236;5.178;2023-03-16T09:28:34;101217.63;;;7.80;100.00
58975;BME280;44751;52.236;5.178;2023-03-16T09:31:03;101220.47;;;7.78;100.00
58975;BME280;44751;52.236;5.178;2023-03-16T09:33:30;101214.59;;;7.93;100.00
58975;BME280;44751;52.236;5.178;2023-03-16T09:35:58;101208.91;;;7.96;100.00
58975;BME280;44751;52.236;5.178;2023-03-16T09:38:26;101227.25;;;8.19;100.00
58975;BME280;44751;52.236;5.178;2023-03-16T09:46:35;101228.16;;;9.25;100.00
58975;BME280;44751;52.236;5.178;2023-03-16T09:49:03;101216.97;;;9.47;100.00
58975;BME280;44751;52.236;5.178;2023-03-16T09:51:57;101206.00;;;9.32;100.00
58975;BME280;44751;52.236;5.178;2023-03-16T09:57:21;101197.72;;;10.34;100.00
58975;BME280;44751;52.236;5.178;2023-03-16T09:59:52;101211.88;;;10.87;100.00
58975;BME280;44751;52.236;5.178;2023-03-16T10:05:11;101195.66;;;10.87;100.00
58975;BME280;44751;52.236;5.178;2023-03-16T10:12:39;101193.34;;;9.92;100.00
58975;BME280;44751;52.236;5.178;2023-03-16T10:15:11;101197.41;;;9.96;100.00
58975;BME280;44751;52.236;5.178;2023-03-16T10:17:45;101194.72;;;10.04;100.00
58975;BME280;44751;52.236;5.178;2023-03-16T10:20:17;101188.28;;;10.30;100.00
58975;BME280;44751;52.236;5.178;2023-03-16T10:22:46;101184.25;;;10.76;100.00
58975;BME280;44751;52.236;5.178;2023-03-16T10:27:45;101171.66;;;11.08;100.00
58975;BME280;44751;52.236;5.178;2023-03-16T10:30:33;101170.34;;;10.96;100.00
58975;BME280;44751;52.236;5.178;2023-03-16T10:33:02;101169.16;;;10.98;100.00
58975;BME280;44751;52.236;5.178;2023-03-16T10:41:13;101162.19;;;11.13;100.00
58975;BME280;44751;52.236;5.178;2023-03-16T10:43:46;101155.19;;;11.58;100.00
58975;BME280;44751;52.236;5.178;2023-03-16T10:46:13;101174.91;;;11.67;100.00
58975;BME280;44751;52.236;5.178;2023-03-16T10:48:39;101157.19;;;11.65;100.00
58975;BME280;44751;52.236;5.178;2023-03-16T10:51:14;101162.53;;;11.96;100.00
58975;BME280;44751;52.236;5.178;2023-03-16T10:53:42;101154.56;;;11.80;100.00
58975;BME280;44751;52.236;5.178;2023-03-16T10:56:22;101145.25;;;11.59;100.00
58975;BME280;44751;52.236;5.178;2023-03-16T10:58:49;101149.53;;;11.45;100.00
58975;BME280;44751;52.236;5.178;2023-03-16T11:01:27;101138.06;;;11.43;100.00
58975;BME280;44751;52.236;5.178;2023-03-16T11:03:55;101129.78;;;11.44;100.00
58975;BME280;44751;52.236;5.178;2023-03-16T11:06:27;101133.81;;;11.48;100.00
58975;BME280;44751;52.236;5.178;2023-03-16T11:09:05;101129.59;;;11.46;100.00
58975;BME280;44751;52.236;5.178;2023-03-16T11:11:36;101127.53;;;11.56;100.00
58975;BME280;44751;52.236;5.178;2023-03-16T11:14:12;101121.59;;;11.29;100.00
58975;BME280;44751;52.236;5.178;2023-03-16T11:16:42;101121.06;;;11.34;100.00
58975;BME280;44751;52.236;5.178;2023-03-16T11:19:20;101118.72;;;11.31;100.00
58975;BME280;44751;52.236;5.178;2023-03-16T11:27:16;101113.97;;;11.33;100.00
58975;BME280;44751;52.236;5.178;2023-03-16T11:32:36;101101.44;;;11.40;100.00
58975;BME280;44751;52.236;5.178;2023-03-16T11:35:13;101107.94;;;11.54;100.00
58975;BME280;44751;52.236;5.178;2023-03-16T11:40:44;101106.19;;;11.85;100.00
58975;BME280;44751;52.236;5.178;2023-03-16T11:46:26;101102.59;;;11.93;100.00
58975;BME280;44751;52.236;5.178;2023-03-16T11:52:16;101107.69;;;12.11;100.00
58975;BME280;44751;52.236;5.178;2023-03-16T11:55:15;101098.19;;;12.15;100.00
58975;BME280;44751;52.236;5.178;2023-03-16T12:01:16;101088.25;;;12.46;99.96
58975;BME280;44751;52.236;5.178;2023-03-16T12:06:59;101084.41;;;12.70;97.88
58975;BME280;44751;52.236;5.178;2023-03-16T12:12:50;101081.44;;;13.17;93.52
58975;BME280;44751;52.236;5.178;2023-03-16T12:15:54;101083.47;;;13.15;93.17
58975;BME280;44751;52.236;5.178;2023-03-16T12:18:26;101078.19;;;13.07;94.37
58975;BME280;44751;52.236;5.178;2023-03-16T12:21:00;101085.31;;;13.08;92.54
58975;BME280;44751;52.236;5.178;2023-03-16T12:23:43;101064.13;;;12.96;92.26
58975;BME280;44751;52.236;5.178;2023-03-16T12:26:14;101086.06;;;13.38;93.85
58975;BME280;44751;52.236;5.178;2023-03-16T12:28:44;101080.69;;;13.45;92.63
58975;BME280;44751;52.236;5.178;2023-03-16T12:31:18;101061.38;;;13.11;88.96
58975;BME280;44751;52.236;5.178;2023-03-16T12:34:01;101075.94;;;13.10;90.57
58975;BME280;44751;52.236;5.178;2023-03-16T12:36:58;101062.34;;;13.25;88.84
58975;BME280;44751;52.236;5.178;2023-03-16T12:42:56;101051.81;;;13.15;89.76
58975;BME280;44751;52.236;5.178;2023-03-16T12:45:42;101045.25;;;13.25;87.97
58975;BME280;44751;52.236;5.178;2023-03-16T12:48:14;101045.41;;;13.60;88.50
58975;BME280;44751;52.236;5.178;2023-03-16T12:50:50;101036.38;;;13.75;87.13
58975;BME280;44751;52.236;5.178;2023-03-16T12:56:17;101014.22;;;13.71;84.74
58975;BME280;44751;52.236;5.178;2023-03-16T12:58:46;101012.97;;;13.96;82.56
58975;BME280;44751;52.236;5.178;2023-03-16T13:01:16;100990.22;;;13.97;84.88
58975;BME280;44751;52.236;5.178;2023-03-16T13:03:46;100985.25;;;14.00;83.74
58975;BME280;44751;52.236;5.178;2023-03-16T13:06:17;100984.63;;;14.05;82.06
58975;BME280;44751;52.236;5.178;2023-03-16T13:08:49;100972.69;;;13.99;82.79
58975;BME280;44751;52.236;5.178;2023-03-16T13:11:16;100962.50;;;14.01;83.79
58975;BME280;44751;52.236;5.178;2023-03-16T13:13:52;100970.34;;;13.89;82.95
58975;BME280;44751;52.236;5.178;2023-03-16T13:16:31;100975.75;;;14.25;82.07
58975;BME280;44751;52.236;5.178;2023-03-16T13:19:15;100974.31;;;14.29;80.50
58975;BME280;44751;52.236;5.178;2023-03-16T13:21:42;100977.53;;;14.04;81.46
58975;BME280;44751;52.236;5.178;2023-03-16T13:26:49;100957.97;;;14.15;78.66
58975;BME280;44751;52.236;5.178;2023-03-16T13:29:27;100967.09;;;14.07;78.13
58975;BME280;44751;52.236;5.178;2023-03-16T13:31:59;100972.63;;;14.21;79.04
58975;BME280;44751;52.236;5.178;2023-03-16T13:34:47;100968.16;;;14.49;81.20
58975;BME280;44751;52.236;5.178;2023-03-16T13:37:17;100958.53;;;14.39;78.48
58975;BME280;44751;52.236;5.178;2023-03-16T13:39:52;100960.88;;;14.56;77.92
58975;BME280;44751;52.236;5.178;2023-03-16T13:42:21;100958.16;;;14.56;78.17
58975;BME280;44751;52.236;5.178;2023-03-16T13:44:51;100951.25;;;14.53;79.31
58975;BME280;44751;52.236;5.178;2023-03-16T13:47:19;100956.88;;;14.45;76.94
58975;BME280;44751;52.236;5.178;2023-03-16T13:49:56;100956.72;;;14.60;74.70
58975;BME280;44751;52.236;5.178;2023-03-16T13:52:27;100955.03;;;14.59;74.64
58975;BME280;44751;52.236;5.178;2023-03-16T13:54:57;100943.06;;;14.46;75.89
58975;BME280;44751;52.236;5.178;2023-03-16T13:57:27;100950.44;;;14.66;74.52
58975;BME280;44751;52.236;5.178;2023-03-16T14:00:24;100953.06;;;14.88;75.45
58975;BME280;44751;52.236;5.178;2023-03-16T14:02:56;100948.63;;;14.80;73.75
58975;BME280;44751;52.236;5.178;2023-03-16T14:05:26;100945.44;;;14.63;72.29
58975;BME280;44751;52.236;5.178;2023-03-16T14:07:54;100950.63;;;14.51;72.90
58975;BME280;44751;52.236;5.178;2023-03-16T14:10:23;100941.09;;;14.69;71.43
58975;BME280;44751;52.236;5.178;2023-03-16T14:12:56;100943.81;;;14.69;72.43